sensor_id;sensor_type;location;lat;lon;timestamp;pressure;altitude;pressure_sealevel;temperature
12007;BMP180;6062;47.294;12.182;2022-09-03T00:00:11;80445.00;;;13.30
12007;BMP180;6062;47.294;12.182;2022-09-03T00:05:34;80458.00;;;13.40
12007;BMP180;6062;47.294;12.182;2022-09-03T00:11:36;80457.00;;;13.40
12007;BMP180;6062;47.294;12.182;2022-09-03T00:14:09;80455.00;;;13.40
12007;BMP180;6062;47.294;12.182;2022-09-03T00:17:26;80456.00;;;13.50
12007;BMP180;6062;47.294;12.182;2022-09-03T00:19:58;80460.00;;;13.50
12007;BMP180;6062;47.294;12.182;2022-09-03T00:22:33;80460.00;;;13.50
12007;BMP180;6062;47.294;12.182;2022-09-03T00:25:04;80465.00;;;13.60
12007;BMP180;6062;47.294;12.182;2022-09-03T00:27:38;80463.00;;;13.60
12007;BMP180;6062;47.294;12.182;2022-09-03T00:30:13;80466.00;;;13.60
12007;BMP180;6062;47.294;12.182;2022-09-03T00:33:01;80468.00;;;13.70
12007;BMP180;6062;47.294;12.182;2022-09-03T00:35:48;80460.00;;;13.70
12007;BMP180;6062;47.294;12.182;2022-09-03T00:38:15;80458.00;;;13.70
12007;BMP180;6062;47.294;12.182;2022-09-03T00:50:00;80465.00;;;13.80
12007;BMP180;6062;47.294;12.182;2022-09-03T01:15:45;80478.00;;;14.20
12007;BMP180;6062;47.294;12.182;2022-09-03T01:22:03;80475.00;;;14.30
12007;BMP180;6062;47.294;12.182;2022-09-03T01:27:44;80477.00;;;14.30
12007;BMP180;6062;47.294;12.182;2022-09-03T01:30:19;80472.00;;;14.30
12007;BMP180;6062;47.294;12.182;2022-09-03T01:33:19;80478.00;;;14.30
12007;BMP180;6062;47.294;12.182;2022-09-03T01:35:59;80473.00;;;14.40
12007;BMP180;6062;47.294;12.182;2022-09-03T01:41:26;80473.00;;;14.40
12007;BMP180;6062;47.294;12.182;2022-09-03T01:50:05;80462.00;;;14.30
12007;BMP180;6062;47.294;12.182;2022-09-03T01:53:00;80462.00;;;14.20
12007;BMP180;6062;47.294;12.182;2022-09-03T01:55:35;80462.00;;;14.10
12007;BMP180;6062;47.294;12.182;2022-09-03T01:58:31;80465.00;;;14.00
12007;BMP180;6062;47.294;12.182;2022-09-03T02:01:09;80465.00;;;14.00
12007;BMP180;6062;47.294;12.182;2022-09-03T02:03:40;80456.00;;;13.90
12007;BMP180;6062;47.294;12.182;2022-09-03T02:06:10;80465.00;;;13.80
12007;BMP180;6062;47.294;12.182;2022-09-03T02:08:37;80470.00;;;13.70
12007;BMP180;6062;47.294;12.182;2022-09-03T02:11:08;80464.00;;;13.70
12007;BMP180;6062;47.294;12.182;2022-09-03T02:13:54;80470.00;;;13.60
12007;BMP180;6062;47.294;12.182;2022-09-03T02:16:29;80468.00;;;13.60
12007;BMP180;6062;47.294;12.182;2022-09-03T02:19:00;80468.00;;;13.50
12007;BMP180;6062;47.294;12.182;2022-09-03T02:21:34;80464.00;;;13.50
12007;BMP180;6062;47.294;12.182;2022-09-03T02:24:04;80460.00;;;13.50
12007;BMP180;6062;47.294;12.182;2022-09-03T02:26:30;80456.00;;;13.50
12007;BMP180;6062;47.294;12.182;2022-09-03T02:28:56;80456.00;;;13.40
12007;BMP180;6062;47.294;12.182;2022-09-03T02:31:23;80458.00;;;13.40
12007;BMP180;6062;47.294;12.182;2022-09-03T02:33:51;80462.00;;;13.40
12007;BMP180;6062;47.294;12.182;2022-09-03T02:36:24;80458.00;;;13.50
12007;BMP180;6062;47.294;12.182;2022-09-03T02:38:50;80458.00;;;13.50
12007;BMP180;6062;47.294;12.182;2022-09-03T02:41:16;80467.00;;;13.50
12007;BMP180;6062;47.294;12.182;2022-09-03T02:43:59;80469.00;;;13.50
12007;BMP180;6062;47.294;12.182;2022-09-03T02:46:44;80467.00;;;13.50
12007;BMP180;6062;47.294;12.182;2022-09-03T02:49:13;80470.00;;;13.60
12007;BMP180;6062;47.294;12.182;2022-09-03T02:51:41;80461.00;;;13.60
12007;BMP180;6062;47.294;12.182;2022-09-03T02:54:08;80460.00;;;13.60
12007;BMP180;6062;47.294;12.182;2022-09-03T02:56:35;80463.00;;;13.70
12007;BMP180;6062;47.294;12.182;2022-09-03T02:59:04;80466.00;;;13.60
12007;BMP180;6062;47.294;12.182;2022-09-03T03:01:29;80471.00;;;13.70
12007;BMP180;6062;47.294;12.182;2022-09-03T03:03:56;80463.00;;;13.70
12007;BMP180;6062;47.294;12.182;2022-09-03T03:06:22;80461.00;;;13.70
12007;BMP180;6062;47.294;12.182;2022-09-03T03:08:49;80461.00;;;13.60
12007;BMP180;6062;47.294;12.182;2022-09-03T03:11:17;80458.00;;;13.60
12007;BMP180;6062;47.294;12.182;2022-09-03T03:13:44;80455.00;;;13.60
12007;BMP180;6062;47.294;12.182;2022-09-03T03:16:11;80458.00;;;13.60
12007;BMP180;6062;47.294;12.182;2022-09-03T03:18:37;80462.00;;;13.60
12007;BMP180;6062;47.294;12.182;2022-09-03T03:21:10;80460.00;;;13.60
12007;BMP180;6062;47.294;12.182;2022-09-03T03:23:38;80456.00;;;13.50
12007;BMP180;6062;47.294;12.182;2022-09-03T03:26:10;80459.00;;;13.60
12007;BMP180;6062;47.294;12.182;2022-09-03T03:28:37;80464.00;;;13.50
12007;BMP180;6062;47.294;12.182;2022-09-03T03:31:16;80465.00;;;13.50
12007;BMP180;6062;47.294;12.182;2022-09-03T03:33:42;80457.00;;;13.50
12007;BMP180;6062;47.294;12.182;2022-09-03T03:36:11;80457.00;;;13.50
12007;BMP180;6062;47.294;12.182;2022-09-03T03:38:39;80466.00;;;13.50
12007;BMP180;6062;47.294;12.182;2022-09-03T03:43:36;80464.00;;;13.50
12007;BMP180;6062;47.294;12.182;2022-09-03T03:46:02;80475.00;;;13.50
12007;BMP180;6062;47.294;12.182;2022-09-03T03:48:28;80477.00;;;13.50
12007;BMP180;6062;47.294;12.182;2022-09-03T03:50:54;80469.00;;;13.60
12007;BMP180;6062;47.294;12.182;2022-09-03T03:53:19;80476.00;;;13.60
12007;BMP180;6062;47.294;12.182;2022-09-03T03:55:59;80476.00;;;13.60
12007;BMP180;6062;47.294;12.182;2022-09-03T03:58:28;80466.00;;;13.60
12007;BMP180;6062;47.294;12.182;2022-09-03T04:01:02;80460.00;;;13.70
12007;BMP180;6062;47.294;12.182;2022-09-03T04:03:28;80471.00;;;13.70
12007;BMP180;6062;47.294;12.182;2022-09-03T04:05:58;80465.00;;;13.70
12007;BMP180;6062;47.294;12.182;2022-09-03T04:08:27;80464.00;;;13.80
12007;BMP180;6062;47.294;12.182;2022-09-03T04:10:53;80465.00;;;13.80
12007;BMP180;6062;47.294;12.182;2022-09-03T04:13:23;80476.00;;;13.80
12007;BMP180;6062;47.294;12.182;2022-09-03T04:15:49;80462.00;;;13.80
12007;BMP180;6062;47.294;12.182;2022-09-03T04:18:14;80465.00;;;13.80
12007;BMP180;6062;47.294;12.182;2022-09-03T04:20:40;80459.00;;;13.90
12007;BMP180;6062;47.294;12.182;2022-09-03T04:23:06;80457.00;;;13.90
12007;BMP180;6062;47.294;12.182;2022-09-03T04:25:31;80459.00;;;13.90
12007;BMP180;6062;47.294;12.182;2022-09-03T04:27:58;80464.00;;;13.90
12007;BMP180;6062;47.294;12.182;2022-09-03T04:30:24;80472.00;;;13.90
12007;BMP180;6062;47.294;12.182;2022-09-03T04:32:50;80462.00;;;13.90
12007;BMP180;6062;47.294;12.182;2022-09-03T04:35:25;80467.00;;;13.90
12007;BMP180;6062;47.294;12.182;2022-09-03T04:37:53;80459.00;;;14.00
12007;BMP180;6062;47.294;12.182;2022-09-03T04:40:19;80468.00;;;14.00
12007;BMP180;6062;47.294;12.182;2022-09-03T04:42:45;80454.00;;;14.00
12007;BMP180;6062;47.294;12.182;2022-09-03T04:45:11;80472.00;;;14.00
12007;BMP180;6062;47.294;12.182;2022-09-03T04:47:40;80467.00;;;14.00
12007;BMP180;6062;47.294;12.182;2022-09-03T04:50:07;80462.00;;;14.00
12007;BMP180;6062;47.294;12.182;2022-09-03T04:52:33;80458.00;;;14.00
12007;BMP180;6062;47.294;12.182;2022-09-03T04:54:58;80465.00;;;14.00
12007;BMP180;6062;47.294;12.182;2022-09-03T04:57:25;80462.00;;;14.10
12007;BMP180;6062;47.294;12.182;2022-09-03T04:59:51;80462.00;;;14.10
12007;BMP180;6062;47.294;12.182;2022-09-03T05:02:17;80469.00;;;14.10
12007;BMP180;6062;47.294;12.182;2022-09-03T05:04:45;80462.00;;;14.10
12007;BMP180;6062;47.294;12.182;2022-09-03T05:07:11;80467.00;;;14.10
12007;BMP180;6062;47.294;12.182;2022-09-03T05:09:37;80454.00;;;14.10
12007;BMP180;6062;47.294;12.182;2022-09-03T05:12:03;80469.00;;;14.20
12007;BMP180;6062;47.294;12.182;2022-09-03T05:14:29;80462.00;;;14.20
12007;BMP180;6062;47.294;12.182;2022-09-03T05:16:54;80466.00;;;14.30
12007;BMP180;6062;47.294;12.182;2022-09-03T05:19:20;80463.00;;;14.40
12007;BMP180;6062;47.294;12.182;2022-09-03T05:21:46;80464.00;;;14.50
12007;BMP180;6062;47.294;12.182;2022-09-03T05:24:11;80471.00;;;14.60
12007;BMP180;6062;47.294;12.182;2022-09-03T05:26:39;80477.00;;;14.80
12007;BMP180;6062;47.294;12.182;2022-09-03T05:29:06;80483.00;;;14.90
12007;BMP180;6062;47.294;12.182;2022-09-03T05:31:36;80478.00;;;15.10
12007;BMP180;6062;47.294;12.182;2022-09-03T05:34:04;80479.00;;;15.40
12007;BMP180;6062;47.294;12.182;2022-09-03T05:36:34;80487.00;;;15.60
12007;BMP180;6062;47.294;12.182;2022-09-03T05:39:00;80481.00;;;15.80
12007;BMP180;6062;47.294;12.182;2022-09-03T05:41:27;80473.00;;;16.00
12007;BMP180;6062;47.294;12.182;2022-09-03T05:43:55;80480.00;;;16.40
12007;BMP180;6062;47.294;12.182;2022-09-03T05:46:29;80481.00;;;16.70
12007;BMP180;6062;47.294;12.182;2022-09-03T05:49:04;80488.00;;;17.20
12007;BMP180;6062;47.294;12.182;2022-09-03T05:51:31;80488.00;;;17.70
12007;BMP180;6062;47.294;12.182;2022-09-03T05:53:58;80484.00;;;18.30
12007;BMP180;6062;47.294;12.182;2022-09-03T05:56:27;80487.00;;;18.90
12007;BMP180;6062;47.294;12.182;2022-09-03T05:58:57;80491.00;;;19.60
12007;BMP180;6062;47.294;12.182;2022-09-03T06:01:29;80497.00;;;20.40
12007;BMP180;6062;47.294;12.182;2022-09-03T06:04:00;80494.00;;;21.10
12007;BMP180;6062;47.294;12.182;2022-09-03T06:06:30;80495.00;;;21.60
12007;BMP180;6062;47.294;12.182;2022-09-03T06:09:03;80496.00;;;21.80
12007;BMP180;6062;47.294;12.182;2022-09-03T06:11:33;80493.00;;;22.00
12007;BMP180;6062;47.294;12.182;2022-09-03T06:14:02;80500.00;;;22.50
12007;BMP180;6062;47.294;12.182;2022-09-03T06:16:30;80501.00;;;23.20
12007;BMP180;6062;47.294;12.182;2022-09-03T06:18:56;80496.00;;;23.90
12007;BMP180;6062;47.294;12.182;2022-09-03T06:21:22;80489.00;;;24.50
12007;BMP180;6062;47.294;12.182;2022-09-03T06:23:55;80497.00;;;25.10
12007;BMP180;6062;47.294;12.182;2022-09-03T06:26:22;80493.00;;;25.60
12007;BMP180;6062;47.294;12.182;2022-09-03T06:28:48;80502.00;;;26.10
12007;BMP180;6062;47.294;12.182;2022-09-03T06:31:18;80496.00;;;26.60
12007;BMP180;6062;47.294;12.182;2022-09-03T06:33:45;80501.00;;;27.00
12007;BMP180;6062;47.294;12.182;2022-09-03T06:36:17;80492.00;;;27.50
12007;BMP180;6062;47.294;12.182;2022-09-03T06:38:45;80494.00;;;27.90
12007;BMP180;6062;47.294;12.182;2022-09-03T06:41:17;80495.00;;;28.40
12007;BMP180;6062;47.294;12.182;2022-09-03T06:43:51;80497.00;;;28.80
12007;BMP180;6062;47.294;12.182;2022-09-03T06:46:21;80494.00;;;28.50
12007;BMP180;6062;47.294;12.182;2022-09-03T06:48:47;80494.00;;;28.10
12007;BMP180;6062;47.294;12.182;2022-09-03T06:51:19;80503.00;;;27.70
12007;BMP180;6062;47.294;12.182;2022-09-03T06:53:49;80502.00;;;27.30
12007;BMP180;6062;47.294;12.182;2022-09-03T06:56:20;80500.00;;;27.00
12007;BMP180;6062;47.294;12.182;2022-09-03T06:58:58;80506.00;;;26.80
12007;BMP180;6062;47.294;12.182;2022-09-03T07:01:30;80499.00;;;27.00
12007;BMP180;6062;47.294;12.182;2022-09-03T07:03:59;80501.00;;;27.40
12007;BMP180;6062;47.294;12.182;2022-09-03T07:06:29;80508.00;;;28.10
12007;BMP180;6062;47.294;12.182;2022-09-03T07:08:55;80507.00;;;28.80
12007;BMP180;6062;47.294;12.182;2022-09-03T07:11:24;80511.00;;;29.40
12007;BMP180;6062;47.294;12.182;2022-09-03T07:13:53;80509.00;;;29.70
12007;BMP180;6062;47.294;12.182;2022-09-03T07:16:31;80509.00;;;29.80
12007;BMP180;6062;47.294;12.182;2022-09-03T07:18:57;80505.00;;;29.80
12007;BMP180;6062;47.294;12.182;2022-09-03T07:21:25;80512.00;;;29.80
12007;BMP180;6062;47.294;12.182;2022-09-03T07:23:52;80514.00;;;30.20
12007;BMP180;6062;47.294;12.182;2022-09-03T07:26:31;80509.00;;;30.40
12007;BMP180;6062;47.294;12.182;2022-09-03T07:28:58;80517.00;;;30.70
12007;BMP180;6062;47.294;12.182;2022-09-03T07:31:37;80524.00;;;30.90
12007;BMP180;6062;47.294;12.182;2022-09-03T07:34:06;80522.00;;;30.70
12007;BMP180;6062;47.294;12.182;2022-09-03T07:36:39;80515.00;;;30.10
12007;BMP180;6062;47.294;12.182;2022-09-03T07:39:08;80517.00;;;29.60
12007;BMP180;6062;47.294;12.182;2022-09-03T07:41:36;80518.00;;;28.80
12007;BMP180;6062;47.294;12.182;2022-09-03T07:44:02;80520.00;;;27.90
12007;BMP180;6062;47.294;12.182;2022-09-03T07:46:35;80516.00;;;27.10
12007;BMP180;6062;47.294;12.182;2022-09-03T07:49:03;80524.00;;;26.60
12007;BMP180;6062;47.294;12.182;2022-09-03T07:51:34;80525.00;;;26.40
12007;BMP180;6062;47.294;12.182;2022-09-03T07:54:03;80525.00;;;25.90
12007;BMP180;6062;47.294;12.182;2022-09-03T07:56:32;80524.00;;;25.30
12007;BMP180;6062;47.294;12.182;2022-09-03T07:59:00;80526.00;;;24.70
12007;BMP180;6062;47.294;12.182;2022-09-03T08:01:28;80529.00;;;24.20
12007;BMP180;6062;47.294;12.182;2022-09-03T08:03:55;80536.00;;;24.00
12007;BMP180;6062;47.294;12.182;2022-09-03T08:06:25;80531.00;;;23.90
12007;BMP180;6062;47.294;12.182;2022-09-03T08:09:07;80532.00;;;23.70
12007;BMP180;6062;47.294;12.182;2022-09-03T08:11:38;80531.00;;;23.40
12007;BMP180;6062;47.294;12.182;2022-09-03T08:14:07;80534.00;;;22.90
12007;BMP180;6062;47.294;12.182;2022-09-03T08:16:45;80537.00;;;22.30
12007;BMP180;6062;47.294;12.182;2022-09-03T08:19:16;80531.00;;;21.70
12007;BMP180;6062;47.294;12.182;2022-09-03T08:21:43;80536.00;;;21.20
12007;BMP180;6062;47.294;12.182;2022-09-03T08:24:10;80535.00;;;20.80
12007;BMP180;6062;47.294;12.182;2022-09-03T08:26:40;80543.00;;;20.50
12007;BMP180;6062;47.294;12.182;2022-09-03T08:29:07;80548.00;;;20.40
12007;BMP180;6062;47.294;12.182;2022-09-03T08:31:34;80543.00;;;20.40
12007;BMP180;6062;47.294;12.182;2022-09-03T08:34:04;80544.00;;;20.20
12007;BMP180;6062;47.294;12.182;2022-09-03T08:36:33;80546.00;;;20.00
12007;BMP180;6062;47.294;12.182;2022-09-03T08:39:03;80559.00;;;19.80
12007;BMP180;6062;47.294;12.182;2022-09-03T08:44:24;80554.00;;;20.00
12007;BMP180;6062;47.294;12.182;2022-09-03T08:55:25;80565.00;;;19.80
12007;BMP180;6062;47.294;12.182;2022-09-03T08:58:05;80563.00;;;19.70
12007;BMP180;6062;47.294;12.182;2022-09-03T09:15:09;80561.00;;;20.70
12007;BMP180;6062;47.294;12.182;2022-09-03T09:20:50;80565.00;;;20.70
12007;BMP180;6062;47.294;12.182;2022-09-03T09:23:33;80564.00;;;20.70
12007;BMP180;6062;47.294;12.182;2022-09-03T09:26:09;80562.00;;;20.70
12007;BMP180;6062;47.294;12.182;2022-09-03T09:28:37;80575.00;;;20.50
12007;BMP180;6062;47.294;12.182;2022-09-03T09:31:06;80561.00;;;20.40
12007;BMP180;6062;47.294;12.182;2022-09-03T09:33:34;80558.00;;;20.20
12007;BMP180;6062;47.294;12.182;2022-09-03T09:36:05;80556.00;;;20.10
12007;BMP180;6062;47.294;12.182;2022-09-03T09:38:36;80553.00;;;20.00
12007;BMP180;6062;47.294;12.182;2022-09-03T09:41:16;80554.00;;;20.10
12007;BMP180;6062;47.294;12.182;2022-09-03T09:43:43;80549.00;;;20.30
12007;BMP180;6062;47.294;12.182;2022-09-03T09:46:18;80553.00;;;20.50
12007;BMP180;6062;47.294;12.182;2022-09-03T09:48:59;80556.00;;;20.70
12007;BMP180;6062;47.294;12.182;2022-09-03T09:51:29;80564.00;;;20.90
12007;BMP180;6062;47.294;12.182;2022-09-03T09:54:17;80565.00;;;21.00
12007;BMP180;6062;47.294;12.182;2022-09-03T09:56:46;80559.00;;;21.00
12007;BMP180;6062;47.294;12.182;2022-09-03T09:59:22;80552.00;;;21.00
12007;BMP180;6062;47.294;12.182;2022-09-03T10:01:48;80565.00;;;20.90
12007;BMP180;6062;47.294;12.182;2022-09-03T10:04:31;80561.00;;;20.70
12007;BMP180;6062;47.294;12.182;2022-09-03T10:09:59;80564.00;;;20.30
12007;BMP180;6062;47.294;12.182;2022-09-03T10:12:34;80572.00;;;20.20
12007;BMP180;6062;47.294;12.182;2022-09-03T10:15:24;80560.00;;;20.10
12007;BMP180;6062;47.294;12.182;2022-09-03T10:18:02;80565.00;;;20.00
12007;BMP180;6062;47.294;12.182;2022-09-03T10:20:45;80556.00;;;19.90
12007;BMP180;6062;47.294;12.182;2022-09-03T10:23:26;80561.00;;;19.80
12007;BMP180;6062;47.294;12.182;2022-09-03T10:26:08;80571.00;;;19.80
12007;BMP180;6062;47.294;12.182;2022-09-03T10:28:38;80565.00;;;19.90
12007;BMP180;6062;47.294;12.182;2022-09-03T10:31:47;80565.00;;;19.80
12007;BMP180;6062;47.294;12.182;2022-09-03T10:35:03;80565.00;;;19.70
12007;BMP180;6062;47.294;12.182;2022-09-03T10:37:42;80555.00;;;19.60
12007;BMP180;6062;47.294;12.182;2022-09-03T10:40:50;80560.00;;;19.40
12007;BMP180;6062;47.294;12.182;2022-09-03T10:46:18;80567.00;;;19.20
12007;BMP180;6062;47.294;12.182;2022-09-03T10:49:09;80569.00;;;19.00
12007;BMP180;6062;47.294;12.182;2022-09-03T10:51:42;80574.00;;;18.90
12007;BMP180;6062;47.294;12.182;2022-09-03T10:57:24;80577.00;;;18.70
12007;BMP180;6062;47.294;12.182;2022-09-03T11:00:09;80567.00;;;18.60
12007;BMP180;6062;47.294;12.182;2022-09-03T11:05:33;80560.00;;;18.60
12007;BMP180;6062;47.294;12.182;2022-09-03T11:08:11;80560.00;;;18.60
12007;BMP180;6062;47.294;12.182;2022-09-03T11:10:48;80554.00;;;18.70
12007;BMP180;6062;47.294;12.182;2022-09-03T11:13:28;80563.00;;;18.80
12007;BMP180;6062;47.294;12.182;2022-09-03T11:16:00;80553.00;;;18.80
12007;BMP180;6062;47.294;12.182;2022-09-03T11:18:44;80553.00;;;18.70
12007;BMP180;6062;47.294;12.182;2022-09-03T11:21:14;80555.00;;;18.60
12007;BMP180;6062;47.294;12.182;2022-09-03T11:23:44;80557.00;;;18.50
12007;BMP180;6062;47.294;12.182;2022-09-03T11:26:16;80563.00;;;18.50
12007;BMP180;6062;47.294;12.182;2022-09-03T11:32:01;80554.00;;;18.80
12007;BMP180;6062;47.294;12.182;2022-09-03T11:34:51;80561.00;;;19.00
12007;BMP180;6062;47.294;12.182;2022-09-03T11:40:14;80552.00;;;19.50
12007;BMP180;6062;47.294;12.182;2022-09-03T11:42:45;80556.00;;;19.80
12007;BMP180;6062;47.294;12.182;2022-09-03T11:45:36;80563.00;;;20.10
12007;BMP180;6062;47.294;12.182;2022-09-03T11:48:17;80561.00;;;20.40
12007;BMP180;6062;47.294;12.182;2022-09-03T11:50:54;80560.00;;;20.50
12007;BMP180;6062;47.294;12.182;2022-09-03T11:53:34;80560.00;;;20.70
12007;BMP180;6062;47.294;12.182;2022-09-03T11:56:17;80565.00;;;20.90
12007;BMP180;6062;47.294;12.182;2022-09-03T11:58:44;80566.00;;;21.00
12007;BMP180;6062;47.294;12.182;2022-09-03T12:01:15;80567.00;;;21.10
12007;BMP180;6062;47.294;12.182;2022-09-03T12:04:02;80570.00;;;21.20
12007;BMP180;6062;47.294;12.182;2022-09-03T12:07:20;80572.00;;;21.20
12007;BMP180;6062;47.294;12.182;2022-09-03T12:10:06;80573.00;;;21.10
12007;BMP180;6062;47.294;12.182;2022-09-03T12:13:30;80565.00;;;20.90
12007;BMP180;6062;47.294;12.182;2022-09-03T12:18:44;80561.00;;;20.60
12007;BMP180;6062;47.294;12.182;2022-09-03T12:21:16;80565.00;;;20.40
12007;BMP180;6062;47.294;12.182;2022-09-03T12:23:50;80564.00;;;20.30
12007;BMP180;6062;47.294;12.182;2022-09-03T12:26:21;80566.00;;;20.10
12007;BMP180;6062;47.294;12.182;2022-09-03T12:28:56;80566.00;;;20.10
12007;BMP180;6062;47.294;12.182;2022-09-03T12:31:31;80567.00;;;20.00
12007;BMP180;6062;47.294;12.182;2022-09-03T12:34:09;80568.00;;;20.00
12007;BMP180;6062;47.294;12.182;2022-09-03T12:36:47;80564.00;;;20.10
12007;BMP180;6062;47.294;12.182;2022-09-03T12:39:26;80564.00;;;20.20
12007;BMP180;6062;47.294;12.182;2022-09-03T12:42:03;80550.00;;;20.20
12007;BMP180;6062;47.294;12.182;2022-09-03T12:47:09;80549.00;;;20.30
12007;BMP180;6062;47.294;12.182;2022-09-03T12:49:38;80541.00;;;20.40
12007;BMP180;6062;47.294;12.182;2022-09-03T12:52:24;80546.00;;;20.50
12007;BMP180;6062;47.294;12.182;2022-09-03T12:55:07;80541.00;;;20.60
12007;BMP180;6062;47.294;12.182;2022-09-03T12:57:43;80533.00;;;20.70
12007;BMP180;6062;47.294;12.182;2022-09-03T13:00:15;80536.00;;;20.90
12007;BMP180;6062;47.294;12.182;2022-09-03T13:03:48;80537.00;;;21.00
12007;BMP180;6062;47.294;12.182;2022-09-03T13:06:05;80537.00;;;21.20
12007;BMP180;6062;47.294;12.182;2022-09-03T13:08:48;80536.00;;;21.30
12007;BMP180;6062;47.294;12.182;2022-09-03T13:11:18;80538.00;;;21.30
12007;BMP180;6062;47.294;12.182;2022-09-03T13:13:53;80528.00;;;21.10
12007;BMP180;6062;47.294;12.182;2022-09-03T13:31:35;80522.00;;;19.90
12007;BMP180;6062;47.294;12.182;2022-09-03T13:36:45;80517.00;;;20.20
12007;BMP180;6062;47.294;12.182;2022-09-03T13:39:29;80514.00;;;20.40
12007;BMP180;6062;47.294;12.182;2022-09-03T13:42:09;80509.00;;;20.50
12007;BMP180;6062;47.294;12.182;2022-09-03T13:44:46;80513.00;;;20.50
12007;BMP180;6062;47.294;12.182;2022-09-03T13:47:48;80508.00;;;20.40
12007;BMP180;6062;47.294;12.182;2022-09-03T13:53:38;80509.00;;;20.10
12007;BMP180;6062;47.294;12.182;2022-09-03T13:56:28;80518.00;;;19.90
12007;BMP180;6062;47.294;12.182;2022-09-03T14:02:10;80515.00;;;19.30
12007;BMP180;6062;47.294;12.182;2022-09-03T14:04:57;80503.00;;;19.10
12007;BMP180;6062;47.294;12.182;2022-09-03T14:08:27;80517.00;;;18.90
12007;BMP180;6062;47.294;12.182;2022-09-03T14:14:05;80515.00;;;18.50
12007;BMP180;6062;47.294;12.182;2022-09-03T14:16:43;80516.00;;;18.40
12007;BMP180;6062;47.294;12.182;2022-09-03T14:19:44;80514.00;;;18.40
12007;BMP180;6062;47.294;12.182;2022-09-03T14:22:54;80519.00;;;18.30
12007;BMP180;6062;47.294;12.182;2022-09-03T14:25:25;80521.00;;;18.30
12007;BMP180;6062;47.294;12.182;2022-09-03T14:27:54;80523.00;;;18.40
12007;BMP180;6062;47.294;12.182;2022-09-03T14:30:42;80522.00;;;18.50
12007;BMP180;6062;47.294;12.182;2022-09-03T14:33:32;80526.00;;;18.60
12007;BMP180;6062;47.294;12.182;2022-09-03T14:42:37;80538.00;;;18.70
12007;BMP180;6062;47.294;12.182;2022-09-03T14:48:52;80534.00;;;18.70
12007;BMP180;6062;47.294;12.182;2022-09-03T14:54:43;80531.00;;;18.60
12007;BMP180;6062;47.294;12.182;2022-09-03T15:00:13;80533.00;;;18.70
12007;BMP180;6062;47.294;12.182;2022-09-03T15:03:06;80532.00;;;18.70
12007;BMP180;6062;47.294;12.182;2022-09-03T15:06:01;80530.00;;;18.80
12007;BMP180;6062;47.294;12.182;2022-09-03T15:09:07;80530.00;;;18.80
12007;BMP180;6062;47.294;12.182;2022-09-03T15:11:59;80525.00;;;18.70
12007;BMP180;6062;47.294;12.182;2022-09-03T15:14:38;80540.00;;;18.60
12007;BMP180;6062;47.294;12.182;2022-09-03T15:20:21;80538.00;;;18.60
12007;BMP180;6062;47.294;12.182;2022-09-03T15:31:57;80536.00;;;18.70
12007;BMP180;6062;47.294;12.182;2022-09-03T15:37:57;80540.00;;;18.70
12007;BMP180;6062;47.294;12.182;2022-09-03T15:43:20;80540.00;;;19.00
12007;BMP180;6062;47.294;12.182;2022-09-03T15:48:50;80550.00;;;18.90
12007;BMP180;6062;47.294;12.182;2022-09-03T15:51:32;80538.00;;;18.70
12007;BMP180;6062;47.294;12.182;2022-09-03T16:08:45;80547.00;;;18.70
12007;BMP180;6062;47.294;12.182;2022-09-03T16:11:33;80550.00;;;18.60
12007;BMP180;6062;47.294;12.182;2022-09-03T16:22:43;80561.00;;;18.10
12007;BMP180;6062;47.294;12.182;2022-09-03T16:25:16;80566.00;;;17.90
12007;BMP180;6062;47.294;12.182;2022-09-03T16:28:02;80582.00;;;17.90
12007;BMP180;6062;47.294;12.182;2022-09-03T16:33:30;80588.00;;;17.60
12007;BMP180;6062;47.294;12.182;2022-09-03T16:36:13;80586.00;;;17.40
12007;BMP180;6062;47.294;12.182;2022-09-03T16:38:54;80594.00;;;17.20
12007;BMP180;6062;47.294;12.182;2022-09-03T16:41:35;80589.00;;;16.80
12007;BMP180;6062;47.294;12.182;2022-09-03T16:53:41;80611.00;;;15.40
12007;BMP180;6062;47.294;12.182;2022-09-03T16:56:18;80613.00;;;15.10
12007;BMP180;6062;47.294;12.182;2022-09-03T17:02:31;80600.00;;;14.60
12007;BMP180;6062;47.294;12.182;2022-09-03T17:05:42;80613.00;;;14.50
12007;BMP180;6062;47.294;12.182;2022-09-03T17:08:37;80619.00;;;14.40
12007;BMP180;6062;47.294;12.182;2022-09-03T17:17:19;80599.00;;;14.20
12007;BMP180;6062;47.294;12.182;2022-09-03T17:20:08;80606.00;;;14.20
12007;BMP180;6062;47.294;12.182;2022-09-03T17:25:39;80621.00;;;14.20
12007;BMP180;6062;47.294;12.182;2022-09-03T17:28:42;80624.00;;;14.30
12007;BMP180;6062;47.294;12.182;2022-09-03T17:34:06;80620.00;;;14.30
12007;BMP180;6062;47.294;12.182;2022-09-03T17:36:48;80634.00;;;14.40
12007;BMP180;6062;47.294;12.182;2022-09-03T17:39:43;80640.00;;;14.40
12007;BMP180;6062;47.294;12.182;2022-09-03T17:42:27;80623.00;;;14.40
12007;BMP180;6062;47.294;12.182;2022-09-03T17:50:57;80634.00;;;14.40
12007;BMP180;6062;47.294;12.182;2022-09-03T17:53:49;80641.00;;;14.40
12007;BMP180;6062;47.294;12.182;2022-09-03T17:56:32;80652.00;;;14.50
12007;BMP180;6062;47.294;12.182;2022-09-03T17:59:57;80668.00;;;14.50
12007;BMP180;6062;47.294;12.182;2022-09-03T18:03:03;80678.00;;;14.50
12007;BMP180;6062;47.294;12.182;2022-09-03T18:05:45;80683.00;;;14.50
12007;BMP180;6062;47.294;12.182;2022-09-03T18:11:21;80692.00;;;14.40
12007;BMP180;6062;47.294;12.182;2022-09-03T18:14:28;80697.00;;;14.20
12007;BMP180;6062;47.294;12.182;2022-09-03T18:17:24;80696.00;;;14.20
12007;BMP180;6062;47.294;12.182;2022-09-03T18:20:12;80700.00;;;14.20
12007;BMP180;6062;47.294;12.182;2022-09-03T18:23:20;80708.00;;;14.20
12007;BMP180;6062;47.294;12.182;2022-09-03T18:26:33;80695.00;;;14.10
12007;BMP180;6062;47.294;12.182;2022-09-03T18:29:56;80699.00;;;14.10
12007;BMP180;6062;47.294;12.182;2022-09-03T18:32:42;80706.00;;;14.10
12007;BMP180;6062;47.294;12.182;2022-09-03T18:35:30;80724.00;;;14.10
12007;BMP180;6062;47.294;12.182;2022-09-03T18:38:23;80725.00;;;14.00
12007;BMP180;6062;47.294;12.182;2022-09-03T18:41:27;80716.00;;;14.00
12007;BMP180;6062;47.294;12.182;2022-09-03T18:47:28;80709.00;;;13.70
12007;BMP180;6062;47.294;12.182;2022-09-03T18:50:34;80711.00;;;13.70
12007;BMP180;6062;47.294;12.182;2022-09-03T18:53:37;80713.00;;;13.60
12007;BMP180;6062;47.294;12.182;2022-09-03T18:56:48;80707.00;;;13.60